This is the latest recevied weather packets stored in our database for station/object OM5AMD-15. If no packets are shown the sender has not sent any weather packets the latest 10 day(s).
| Time | Temp. | Humidity | Pressure | Rain* | Wind** | Luminosity | Snow |
|---|---|---|---|---|---|---|---|
| 1777687831 | 9.44° C | 56% | 1029.6 hPa | 0 mm | - | - | - |
| 1777687220 | 9.44° C | 56% | 1029.6 hPa | 0 mm | - | - | - |
| 1777683022 | 10.56° C | 54% | 1029.6 hPa | 0 mm | - | - | - |
| 1777678254 | 12.22° C | 49% | 1029.6 hPa | 0 mm | - | - | - |
| 1777677643 | 12.22° C | 49% | 1029.6 hPa | 0 mm | - | - | - |
| 1777675840 | 13.33° C | 47% | 1029.6 hPa | 0 mm | - | - | - |
| 1777674017 | 13.33° C | 46% | 1029.6 hPa | 0 mm | - | - | - |
| 1777672838 | 13.89° C | 45% | 1029.6 hPa | 0 mm | - | - | - |
| 1777671037 | 15° C | 41% | 1029.6 hPa | 0 mm | - | - | - |
| 1777670441 | 15° C | 40% | 1029.6 hPa | 0 mm | - | - | - |
| 1777666226 | 16.11° C | 37% | 1029.6 hPa | 0 mm | - | - | - |
| 1777661417 | 17.78° C | 34% | 1029.6 hPa | 0 mm | - | - | - |
| 1777659020 | 18.33° C | 33% | 1029.6 hPa | 0 mm | - | - | - |
| 1777656623 | 18.89° C | 32% | 1028.6 hPa | 0 mm | - | - | - |
| 1777651824 | 20° C | 28% | 1029.6 hPa | 0 mm | - | - | - |
| 1777642241 | 20° C | 27% | 1030.6 hPa | 0 mm | - | - | - |
| 1777641622 | 20° C | 27% | 1030.6 hPa | 0 mm | - | - | - |
| 1777641018 | 19.44° C | 28% | 1030.6 hPa | 0 mm | - | - | - |
| 1777639232 | 20° C | 27% | 1030.6 hPa | 0 mm | - | - | - |
| 1777636221 | 20° C | 26% | 1031.6 hPa | 0 mm | - | - | - |
| 1777634421 | 20.56° C | 25% | 1031.6 hPa | 0 mm | - | - | - |
| 1777629024 | 19.44° C | 24% | 1032.6 hPa | 0 mm | - | - | - |
| 1777628437 | 18.89° C | 24% | 1032.6 hPa | 0 mm | - | - | - |
| 1777624825 | 18.33° C | 24% | 1033.7 hPa | 0 mm | - | - | - |
| 1777623648 | 17.78° C | 24% | 1033.7 hPa | 0 mm | - | - | - |
* Rain latest hour (hover to see other rain measurements)
** Current wind speed in m/s (hover to see current wind gust speed)